createdAt,value
2019-03-04T00:01:26.634Z,75.27
2019-03-04T00:03:56.589Z,75.19
2019-03-04T00:06:26.588Z,74.98
2019-03-04T00:08:56.576Z,74.88
2019-03-04T00:11:26.535Z,74.72
2019-03-04T00:13:56.505Z,74.69
2019-03-04T00:16:26.535Z,74.72
2019-03-04T00:18:56.519Z,74.59
2019-03-04T00:21:26.845Z,74.09
2019-03-04T00:23:56.787Z,74.12
2019-03-04T00:26:26.733Z,74.11
2019-03-04T00:28:56.761Z,74.04
2019-03-04T00:31:27.432Z,74.09
2019-03-04T00:33:57.427Z,73.89
2019-03-04T00:36:27.383Z,73.51
2019-03-04T00:38:57.684Z,73.49
2019-03-04T00:41:29.120Z,73.52
2019-03-04T00:43:59.088Z,73.45
2019-03-04T00:46:28.987Z,73.41
2019-03-04T00:48:59.370Z,73.34
2019-03-04T00:51:29.301Z,73.13
2019-03-04T00:53:59.367Z,73.10
2019-03-04T00:56:29.790Z,73.03
2019-03-04T00:58:59.701Z,72.56
2019-03-04T01:01:29.703Z,71.92
2019-03-04T01:03:59.683Z,71.51
2019-03-04T01:06:29.961Z,71.62
2019-03-04T01:08:59.936Z,71.58
2019-03-04T01:11:29.927Z,71.59
2019-03-04T01:13:59.851Z,71.23
2019-03-04T01:16:30.416Z,71.51
2019-03-04T01:19:00.363Z,71.56
2019-03-04T01:21:30.634Z,71.64
2019-03-04T01:24:00.622Z,71.85
2019-03-04T01:26:31.997Z,71.98
2019-03-04T01:29:01.983Z,72.11
2019-03-04T01:31:32.406Z,72.34
2019-03-04T01:34:02.307Z,72.40
2019-03-04T01:36:32.198Z,72.54
2019-03-04T01:39:02.187Z,72.59
2019-03-04T01:41:33.784Z,72.67
2019-03-04T01:44:03.745Z,72.76
2019-03-04T01:46:34.038Z,72.67
2019-03-04T01:49:04.330Z,72.97
2019-03-04T01:51:34.640Z,72.95
2019-03-04T01:54:04.731Z,73.00
2019-03-04T01:56:34.715Z,73.03
2019-03-04T01:59:04.739Z,73.01
2019-03-04T02:01:34.732Z,72.95
2019-03-04T02:04:05.045Z,73.16
2019-03-04T02:06:34.997Z,73.06
2019-03-04T02:09:06.777Z,73.11
2019-03-04T02:11:38.517Z,73.05
2019-03-04T02:14:09.103Z,73.04
2019-03-04T02:16:39.360Z,73.10
2019-03-04T02:19:11.067Z,73.52
2019-03-04T02:21:41.439Z,73.62
2019-03-04T02:24:23.866Z,73.47
2019-03-04T02:26:55.311Z,73.32
2019-03-04T02:29:25.380Z,73.27
2019-03-04T02:31:55.317Z,73.03
2019-03-04T02:34:25.277Z,72.79
2019-03-04T02:36:55.230Z,72.39
2019-03-04T02:39:25.155Z,72.25
2019-03-04T02:41:55.128Z,72.36
2019-03-04T02:44:25.147Z,72.51
2019-03-04T02:46:55.097Z,71.59
2019-03-04T02:49:25.284Z,71.57
2019-03-04T02:51:55.608Z,71.51
2019-03-04T02:54:25.935Z,71.24
2019-03-04T02:56:56.000Z,70.80
2019-03-04T02:59:25.923Z,70.40
2019-03-04T03:01:55.832Z,69.78
2019-03-04T03:04:25.817Z,69.59
2019-03-04T03:06:56.115Z,69.58
2019-03-04T03:09:26.133Z,69.12
2019-03-04T03:11:56.094Z,68.69
2019-03-04T03:14:26.124Z,68.25
2019-03-04T03:16:55.991Z,68.26
2019-03-04T03:19:25.873Z,68.38
2019-03-04T03:21:55.832Z,67.90
2019-03-04T03:24:25.703Z,67.77
2019-03-04T03:26:55.689Z,67.65
2019-03-04T03:29:26.408Z,67.90
2019-03-04T03:31:56.309Z,68.25
2019-03-04T03:34:27.644Z,68.57
2019-03-04T03:36:57.857Z,68.79
2019-03-04T03:39:27.947Z,69.09
2019-03-04T03:41:57.950Z,68.86
2019-03-04T03:44:29.393Z,69.55
2019-03-04T03:46:59.345Z,69.84
2019-03-04T03:49:29.247Z,70.04
2019-03-04T03:51:59.261Z,69.96
2019-03-04T03:54:29.237Z,70.00
2019-03-04T03:56:59.207Z,69.78
2019-03-04T03:59:29.184Z,69.60
2019-03-04T04:01:59.871Z,69.47
2019-03-04T04:04:29.798Z,68.68
2019-03-04T04:07:00.194Z,67.92
2019-03-04T04:09:30.164Z,66.72
2019-03-04T04:12:00.139Z,65.72
2019-03-04T04:14:30.480Z,66.05
2019-03-04T04:17:00.394Z,66.39
2019-03-04T04:19:30.999Z,66.89
2019-03-04T04:22:01.300Z,66.44
2019-03-04T04:24:31.278Z,65.98
2019-03-04T04:27:01.261Z,65.32
2019-03-04T04:29:31.485Z,65.00
2019-03-04T04:32:01.729Z,64.40
2019-03-04T04:34:36.550Z,64.65
2019-03-04T04:37:06.692Z,64.44
2019-03-04T04:39:37.349Z,64.36
2019-03-04T04:42:07.296Z,63.93
2019-03-04T04:44:37.257Z,63.68
2019-03-04T04:47:09.640Z,64.10
2019-03-04T04:49:39.788Z,63.89
2019-03-04T04:52:09.809Z,64.03
2019-03-04T04:54:39.857Z,63.98
2019-03-04T04:57:09.791Z,64.50
2019-03-04T04:59:39.691Z,64.75
2019-03-04T05:02:09.663Z,65.04
2019-03-04T05:04:39.638Z,65.26
2019-03-04T05:07:09.640Z,65.47
2019-03-04T05:09:39.612Z,65.70
2019-03-04T05:12:11.100Z,65.89
2019-03-04T05:14:41.492Z,65.76
2019-03-04T05:17:11.924Z,66.18
2019-03-04T05:19:42.506Z,66.17
2019-03-04T05:22:14.740Z,66.28
2019-03-04T05:24:48.772Z,66.63
2019-03-04T05:27:21.404Z,66.77
2019-03-04T05:29:53.245Z,66.78
2019-03-04T05:32:28.438Z,66.54
2019-03-04T05:34:59.506Z,66.59
2019-03-04T05:37:29.743Z,67.07
2019-03-04T05:39:59.761Z,67.04
2019-03-04T05:42:29.710Z,67.06
2019-03-04T05:44:59.592Z,67.29
2019-03-04T05:47:29.518Z,67.16
2019-03-04T05:49:59.507Z,67.21
2019-03-04T05:52:30.964Z,67.34
2019-03-04T05:55:00.882Z,67.24
2019-03-04T05:57:32.358Z,67.00
2019-03-04T06:00:02.429Z,66.47
2019-03-04T06:02:32.653Z,66.31
2019-03-04T06:05:02.724Z,65.93
2019-03-04T06:07:54.431Z,65.49
2019-03-04T06:10:24.415Z,65.00
2019-03-04T06:12:54.354Z,64.78
2019-03-04T06:15:24.350Z,64.34
2019-03-04T06:17:54.387Z,64.40
2019-03-04T06:20:24.394Z,60.47
2019-03-04T06:22:54.663Z,64.77
2019-03-04T06:25:26.682Z,70.16
2019-03-04T06:27:57.597Z,72.54
2019-03-04T06:30:28.213Z,73.59
2019-03-04T06:32:58.188Z,74.98
2019-03-04T06:35:28.222Z,74.47
2019-03-04T06:37:58.188Z,74.81
2019-03-04T06:40:28.236Z,74.38
2019-03-04T06:42:58.319Z,73.83
2019-03-04T06:45:28.381Z,74.16
2019-03-04T06:47:58.399Z,74.64
2019-03-04T06:51:03.924Z,77.01
2019-03-04T06:54:24.068Z,79.77
2019-03-04T06:56:58.647Z,82.16
2019-03-04T07:00:09.815Z,88.60
2019-03-04T07:02:39.960Z,90.75
2019-03-04T07:05:44.487Z,91.06
2019-03-04T07:09:07.747Z,90.12
2019-03-04T07:11:40.193Z,89.01
2019-03-04T07:14:10.216Z,88.79
2019-03-04T07:16:40.189Z,87.70
2019-03-04T07:19:16.418Z,87.42
2019-03-04T07:21:46.978Z,87.35
2019-03-04T07:24:17.029Z,87.16
2019-03-04T07:26:47.465Z,85.48
2019-03-04T07:29:17.435Z,85.50
2019-03-04T07:31:47.454Z,85.43
2019-03-04T07:34:17.456Z,80.69
2019-03-04T07:36:48.206Z,81.35
2019-03-04T07:39:19.905Z,82.07
2019-03-04T07:41:51.857Z,83.07
2019-03-04T07:44:21.883Z,81.10
2019-03-04T07:46:51.885Z,80.20
2019-03-04T07:49:21.862Z,79.03
2019-03-04T07:51:51.937Z,77.02
2019-03-04T07:54:21.812Z,75.00
2019-03-04T07:56:51.796Z,74.46
2019-03-04T07:59:25.188Z,72.50
2019-03-04T08:01:55.159Z,70.75
2019-03-04T08:04:26.154Z,70.42
2019-03-04T08:07:24.729Z,70.11
2019-03-04T08:10:10.899Z,70.62
2019-03-04T08:12:58.630Z,70.74
2019-03-04T08:15:38.836Z,70.66
2019-03-04T08:18:08.875Z,69.39
2019-03-04T08:20:38.839Z,70.81
2019-03-04T08:23:10.232Z,69.97
2019-03-04T08:25:41.176Z,69.98
2019-03-04T08:28:12.962Z,69.67
2019-03-04T08:30:43.636Z,69.45
2019-03-04T08:33:13.764Z,68.87
2019-03-04T08:35:43.779Z,70.21
2019-03-04T08:38:14.168Z,69.91
2019-03-04T08:40:44.236Z,69.30
2019-03-04T08:43:14.551Z,69.70
2019-03-04T08:45:45.804Z,69.29
2019-03-04T08:48:15.860Z,68.60
2019-03-04T08:50:45.810Z,67.79
2019-03-04T08:53:15.850Z,67.47
2019-03-04T08:55:45.797Z,67.28
2019-03-04T08:58:15.840Z,66.13
2019-03-04T09:00:45.849Z,66.20
2019-03-04T09:03:15.832Z,66.12
2019-03-04T09:05:46.044Z,64.95
2019-03-04T09:08:16.077Z,64.73
2019-03-04T09:10:46.187Z,64.25
2019-03-04T09:13:16.533Z,64.55
2019-03-04T09:15:46.849Z,63.26
2019-03-04T09:18:16.793Z,61.38
2019-03-04T09:20:46.823Z,61.47
2019-03-04T09:23:16.914Z,61.78
2019-03-04T09:25:50.962Z,62.17
2019-03-04T09:28:20.819Z,60.91
2019-03-04T09:30:50.722Z,59.92
2019-03-04T09:33:21.644Z,60.25
2019-03-04T09:35:51.638Z,60.17
2019-03-04T09:38:21.625Z,60.06
2019-03-04T09:40:51.958Z,59.93
2019-03-04T09:43:25.240Z,59.61
2019-03-04T09:45:55.226Z,58.81
2019-03-04T09:48:26.175Z,59.24
2019-03-04T09:50:56.165Z,58.77
2019-03-04T09:53:26.391Z,59.65
2019-03-04T09:55:56.346Z,59.35
2019-03-04T09:58:27.396Z,58.74
2019-03-04T10:01:08.756Z,59.72
2019-03-04T10:04:06.516Z,58.65
2019-03-04T10:06:47.221Z,59.79
2019-03-04T10:09:52.475Z,59.18
2019-03-04T10:12:52.297Z,59.08
2019-03-04T10:15:49.727Z,58.42
2019-03-04T10:18:37.001Z,58.37
2019-03-04T10:21:25.270Z,57.63
2019-03-04T10:24:31.903Z,58.39
2019-03-04T10:27:35.441Z,57.64
2019-03-04T10:30:20.523Z,58.09
2019-03-04T10:33:14.707Z,58.39
2019-03-04T10:36:05.751Z,58.14
2019-03-04T10:39:17.782Z,58.53
2019-03-04T10:42:46.889Z,57.69
2019-03-04T10:45:53.205Z,57.66
2019-03-04T10:48:23.417Z,57.98
2019-03-04T10:50:53.479Z,58.49
2019-03-04T10:53:23.388Z,58.20
2019-03-04T10:55:53.466Z,58.12
2019-03-04T10:58:23.777Z,58.80
2019-03-04T11:00:53.724Z,59.14
2019-03-04T11:03:23.862Z,58.44
2019-03-04T11:05:53.818Z,59.28
2019-03-04T11:08:23.869Z,58.63
2019-03-04T11:10:53.834Z,58.78
2019-03-04T11:13:23.802Z,58.77
2019-03-04T11:15:53.825Z,57.79
2019-03-04T11:18:23.798Z,57.37
2019-03-04T11:20:54.068Z,57.84
2019-03-04T11:23:25.008Z,58.38
2019-03-04T11:25:54.982Z,58.68
2019-03-04T11:28:25.199Z,59.35
2019-03-04T11:30:55.208Z,59.47
2019-03-04T11:33:26.278Z,59.63
2019-03-04T11:35:56.302Z,60.95
2019-03-04T11:38:37.974Z,64.99
2019-03-04T11:41:10.148Z,73.08
2019-03-04T11:43:40.286Z,78.78
2019-03-04T11:46:11.061Z,82.07
2019-03-04T11:48:41.415Z,84.72
2019-03-04T11:51:11.472Z,87.09
2019-03-04T11:53:41.419Z,88.11
2019-03-04T11:56:11.379Z,89.19
2019-03-04T11:58:41.313Z,90.42
2019-03-04T12:01:14.599Z,92.04
2019-03-04T12:03:44.596Z,92.57
2019-03-04T12:06:14.508Z,92.32
2019-03-04T12:08:44.580Z,93.67
2019-03-04T12:11:14.527Z,95.24
2019-03-04T12:13:44.551Z,95.25
2019-03-04T12:16:14.537Z,96.03
2019-03-04T12:18:45.582Z,95.87
2019-03-04T12:21:15.626Z,95.93
2019-03-04T12:23:45.667Z,96.24
2019-03-04T12:26:15.647Z,96.56
2019-03-04T12:28:45.623Z,96.44
2019-03-04T12:31:15.631Z,95.36
2019-03-04T12:33:45.584Z,94.54
2019-03-04T12:36:15.588Z,94.61
2019-03-04T12:38:45.780Z,92.31
2019-03-04T12:41:15.688Z,90.09
2019-03-04T12:43:45.636Z,88.89
2019-03-04T12:46:15.510Z,88.57
2019-03-04T12:48:47.230Z,88.99
2019-03-04T12:51:23.035Z,88.97
2019-03-04T12:53:49.531Z,88.89
2019-03-04T12:56:20.248Z,87.97
2019-03-04T12:58:50.469Z,88.25
2019-03-04T13:01:20.445Z,86.78
2019-03-04T13:03:50.386Z,85.22
2019-03-04T13:06:20.282Z,85.00
2019-03-04T13:08:50.643Z,83.57
2019-03-04T13:11:20.590Z,83.74
2019-03-04T13:13:51.924Z,82.87
2019-03-04T13:16:21.890Z,82.82
2019-03-04T13:18:51.861Z,82.83
2019-03-04T13:21:21.809Z,82.24
2019-03-04T13:23:51.779Z,82.63
2019-03-04T13:26:21.724Z,81.81
2019-03-04T13:28:51.666Z,82.90
2019-03-04T13:31:21.663Z,82.66
2019-03-04T13:33:51.614Z,82.63
2019-03-04T13:36:21.581Z,81.65
2019-03-04T13:38:51.556Z,81.89
2019-03-04T13:41:21.522Z,77.83
2019-03-04T13:43:51.497Z,77.21
2019-03-04T13:46:21.716Z,77.64
2019-03-04T13:48:52.644Z,78.04
2019-03-04T13:51:22.624Z,78.81
2019-03-04T13:53:53.715Z,76.78
2019-03-04T13:56:23.569Z,76.31
2019-03-04T13:58:53.838Z,76.31
2019-03-04T14:01:24.620Z,76.00
2019-03-04T14:03:54.683Z,74.46
2019-03-04T14:06:24.657Z,74.47
2019-03-04T14:08:56.057Z,70.92
2019-03-04T14:11:26.124Z,69.83
2019-03-04T14:13:56.396Z,69.58
2019-03-04T14:16:27.369Z,69.30
2019-03-04T14:18:58.787Z,68.41
2019-03-04T14:21:28.669Z,68.09
2019-03-04T14:23:58.716Z,67.97
2019-03-04T14:26:28.691Z,68.98
2019-03-04T14:29:00.086Z,66.54
2019-03-04T14:31:30.734Z,65.74
2019-03-04T14:34:00.684Z,65.89
2019-03-04T14:36:30.661Z,66.71
2019-03-04T14:39:00.968Z,67.65
2019-03-04T14:41:32.592Z,67.21
2019-03-04T14:44:02.620Z,66.77
2019-03-04T14:46:33.654Z,66.06
2019-03-04T14:49:03.674Z,66.74
2019-03-04T14:51:33.668Z,66.50
2019-03-04T14:54:03.688Z,67.58
2019-03-04T14:56:33.749Z,67.93
2019-03-04T14:59:10.926Z,67.03
2019-03-04T15:01:35.800Z,65.50
2019-03-04T15:04:05.801Z,64.07
2019-03-04T15:06:35.761Z,63.79
2019-03-04T15:09:10.018Z,64.55
2019-03-04T15:11:40.415Z,64.25
2019-03-04T15:14:10.429Z,63.23
2019-03-04T15:16:40.640Z,65.32
2019-03-04T15:19:11.783Z,64.34
2019-03-04T15:21:41.753Z,63.79
2019-03-04T15:24:12.066Z,62.35
2019-03-04T15:26:44.265Z,59.18
2019-03-04T15:29:13.843Z,60.37
2019-03-04T15:31:43.925Z,60.08
2019-03-04T15:34:13.932Z,58.26
2019-03-04T15:36:43.880Z,58.34
2019-03-04T15:39:22.961Z,59.32
2019-03-04T15:41:50.183Z,58.41
2019-03-04T15:44:19.904Z,57.65
2019-03-04T15:46:49.916Z,56.42
2019-03-04T15:49:20.181Z,55.51
2019-03-04T15:51:50.140Z,56.93
2019-03-04T15:54:20.116Z,57.13
2019-03-04T15:56:50.172Z,58.04
2019-03-04T15:59:20.431Z,58.22
2019-03-04T16:01:50.404Z,57.20
2019-03-04T16:04:20.385Z,56.22
2019-03-04T16:06:50.347Z,56.78
2019-03-04T16:09:21.704Z,57.73
2019-03-04T16:11:51.677Z,57.70
2019-03-04T16:14:22.070Z,57.48
2019-03-04T16:16:51.943Z,58.77
2019-03-04T16:19:23.621Z,58.89
2019-03-04T16:21:54.173Z,59.64
2019-03-04T16:24:25.961Z,58.13
2019-03-04T16:26:56.581Z,58.73
2019-03-04T16:29:34.287Z,58.19
2019-03-04T16:31:59.278Z,55.00
2019-03-04T16:34:29.909Z,51.71
2019-03-04T16:37:04.770Z,53.34
2019-03-04T16:39:34.989Z,52.99
2019-03-04T16:42:07.926Z,52.24
2019-03-04T16:44:39.934Z,52.87
2019-03-04T16:47:10.602Z,53.83
2019-03-04T16:49:40.963Z,52.65
2019-03-04T16:52:11.061Z,53.71
2019-03-04T16:54:41.054Z,53.66
2019-03-04T16:57:14.399Z,53.97
2019-03-04T16:59:44.381Z,54.76
2019-03-04T17:02:14.984Z,55.75
2019-03-04T17:04:45.423Z,56.13
2019-03-04T17:07:15.442Z,56.86
2019-03-04T17:09:45.621Z,57.23
2019-03-04T17:12:16.221Z,57.14
2019-03-04T17:14:46.316Z,56.93
2019-03-04T17:17:16.461Z,57.17
2019-03-04T17:19:46.497Z,57.48
2019-03-04T17:22:16.540Z,58.15
2019-03-04T17:24:46.837Z,58.85
2019-03-04T17:27:17.142Z,59.50
2019-03-04T17:29:47.225Z,59.49
2019-03-04T17:32:17.171Z,60.50
2019-03-04T17:34:47.187Z,60.64
2019-03-04T17:37:17.093Z,61.61
2019-03-04T17:39:48.141Z,61.63
2019-03-04T17:42:18.004Z,61.60
2019-03-04T17:44:48.003Z,62.06
2019-03-04T17:47:18.056Z,62.40
2019-03-04T17:49:48.008Z,62.10
2019-03-04T17:52:18.054Z,62.18
2019-03-04T17:54:48.086Z,61.96
2019-03-04T17:57:18.483Z,61.68
2019-03-04T17:59:48.412Z,61.55
2019-03-04T18:02:18.412Z,61.99
2019-03-04T18:04:48.953Z,62.08
2019-03-04T18:07:19.600Z,61.73
2019-03-04T18:09:49.675Z,61.19
2019-03-04T18:12:19.661Z,61.54
2019-03-04T18:14:50.247Z,61.70
2019-03-04T18:17:20.210Z,61.51
2019-03-04T18:19:50.569Z,61.13
2019-03-04T18:22:20.894Z,60.96
2019-03-04T18:24:50.838Z,61.28
2019-03-04T18:27:31.541Z,61.41
2019-03-04T18:30:34.891Z,61.91
2019-03-04T18:33:36.375Z,61.73
2019-03-04T18:36:39.456Z,61.73
2019-03-04T18:39:45.496Z,61.64
2019-03-04T18:42:52.316Z,61.74
2019-03-04T18:46:21.248Z,61.55
2019-03-04T18:49:01.406Z,61.92
2019-03-04T18:51:32.962Z,62.06
2019-03-04T18:54:17.671Z,62.74
2019-03-04T18:56:47.772Z,62.37
2019-03-04T18:59:17.950Z,62.60
2019-03-04T19:01:48.004Z,62.54
2019-03-04T19:04:17.999Z,62.72
2019-03-04T19:06:48.615Z,63.07
2019-03-04T19:09:19.290Z,62.86
2019-03-04T19:11:50.065Z,63.30
2019-03-04T19:14:20.037Z,63.41
2019-03-04T19:16:50.041Z,63.88
2019-03-04T19:19:20.270Z,63.75
2019-03-04T19:21:50.369Z,63.70
2019-03-04T19:24:20.533Z,63.76
2019-03-04T19:26:51.585Z,64.29
2019-03-04T19:29:21.628Z,63.99
2019-03-04T19:31:51.670Z,64.35
2019-03-04T19:34:21.629Z,64.03
2019-03-04T19:36:51.980Z,63.78
2019-03-04T19:39:22.239Z,63.69
2019-03-04T19:41:53.267Z,64.15
2019-03-04T19:44:23.184Z,64.14
2019-03-04T19:46:55.171Z,63.66
2019-03-04T19:49:25.594Z,63.21
2019-03-04T19:51:55.624Z,63.32
2019-03-04T19:54:25.791Z,63.42
2019-03-04T19:56:55.845Z,63.26
2019-03-04T19:59:25.831Z,63.27
2019-03-04T20:01:55.861Z,63.33
2019-03-04T20:04:26.069Z,63.62
2019-03-04T20:06:56.352Z,63.91
2019-03-04T20:09:26.751Z,63.95
2019-03-04T20:11:56.826Z,63.92
2019-03-04T20:14:26.876Z,64.34
2019-03-04T20:16:57.194Z,64.50
2019-03-04T20:19:27.884Z,64.25
2019-03-04T20:21:57.998Z,64.22
2019-03-04T20:24:28.120Z,64.34
2019-03-04T20:26:58.337Z,64.50
2019-03-04T20:29:28.484Z,64.58
2019-03-04T20:31:58.613Z,64.30
2019-03-04T20:34:29.131Z,63.81
2019-03-04T20:37:00.129Z,64.02
2019-03-04T20:39:30.123Z,64.21
2019-03-04T20:42:00.900Z,64.33
2019-03-04T20:44:32.183Z,64.43
2019-03-04T20:47:02.269Z,64.59
2019-03-04T20:49:32.505Z,64.61
2019-03-04T20:54:53.668Z,64.43
2019-03-04T20:57:26.652Z,64.01
2019-03-04T20:59:57.769Z,65.30
2019-03-04T21:02:29.086Z,69.67
2019-03-04T21:05:05.180Z,74.09
2019-03-04T21:07:37.160Z,75.22
2019-03-04T21:10:10.058Z,77.61
2019-03-04T21:13:03.055Z,78.33
2019-03-04T21:15:36.471Z,79.95
2019-03-04T21:18:09.370Z,81.69
2019-03-04T21:20:42.751Z,83.68
2019-03-04T21:23:17.860Z,85.39
2019-03-04T21:25:56.641Z,86.07
2019-03-04T21:28:55.217Z,86.53
2019-03-04T21:31:40.283Z,86.45
2019-03-04T21:35:03.805Z,86.61
2019-03-04T21:37:54.547Z,86.45
2019-03-04T21:40:56.515Z,85.97
2019-03-04T21:43:37.551Z,86.03
2019-03-04T21:46:53.706Z,86.11
2019-03-04T21:49:25.495Z,86.07
2019-03-04T21:52:34.808Z,85.90
2019-03-04T21:55:08.438Z,86.02
2019-03-04T21:57:45.370Z,86.04
2019-03-04T22:00:25.815Z,85.56
2019-03-04T22:03:17.970Z,85.77
2019-03-04T22:05:50.512Z,85.38
2019-03-04T22:08:20.930Z,84.50
2019-03-04T22:10:51.319Z,84.35
2019-03-04T22:13:21.521Z,84.12
2019-03-04T22:15:51.781Z,83.99
2019-03-04T22:18:22.173Z,84.01
2019-03-04T22:20:53.540Z,83.61
2019-03-04T22:23:23.709Z,82.89
2019-03-04T22:26:01.564Z,82.88
2019-03-04T22:28:25.386Z,82.69
2019-03-04T22:30:55.388Z,82.55
2019-03-04T22:33:25.673Z,81.87
2019-03-04T22:35:55.996Z,81.45
2019-03-04T22:38:26.131Z,80.82
2019-03-04T22:40:56.146Z,79.57
2019-03-04T22:43:26.112Z,79.22
2019-03-04T22:45:56.059Z,77.40
2019-03-04T22:48:26.121Z,76.86
2019-03-04T22:50:56.092Z,76.53
2019-03-04T22:53:27.216Z,76.57
2019-03-04T22:55:57.610Z,76.80
2019-03-04T22:58:29.056Z,77.37
2019-03-04T23:01:35.915Z,76.42
2019-03-04T23:04:20.635Z,76.87
2019-03-04T23:07:17.764Z,76.32
2019-03-04T23:10:10.388Z,75.08
2019-03-04T23:13:23.225Z,75.49
2019-03-04T23:15:54.358Z,76.02
2019-03-04T23:18:24.359Z,75.30
2019-03-04T23:20:54.298Z,74.57
2019-03-04T23:23:24.255Z,75.27
2019-03-04T23:25:56.414Z,74.82
2019-03-04T23:28:26.552Z,74.79
2019-03-04T23:30:59.933Z,74.43
2019-03-04T23:33:29.464Z,74.45
2019-03-04T23:35:59.778Z,74.51
2019-03-04T23:38:31.729Z,74.70
2019-03-04T23:41:01.629Z,74.80
2019-03-04T23:43:31.556Z,74.56
2019-03-04T23:46:01.549Z,74.35
2019-03-04T23:48:31.500Z,72.98
2019-03-04T23:51:01.805Z,73.60
2019-03-04T23:53:31.801Z,73.03
2019-03-04T23:56:01.751Z,73.48
2019-03-04T23:58:31.628Z,72.50
